sensor_id;sensor_type;location;lat;lon;timestamp;P1;durP1;ratioP1;P2;durP2;ratioP2
5762;SDS011;2906;53.282;9.508;2022-09-27T00:00:12;5.32;;;3.58;;
5762;SDS011;2906;53.282;9.508;2022-09-27T00:01:14;7.55;;;3.60;;
5762;SDS011;2906;53.282;9.508;2022-09-27T00:02:16;7.72;;;3.65;;
5762;SDS011;2906;53.282;9.508;2022-09-27T00:03:18;5.90;;;3.17;;
5762;SDS011;2906;53.282;9.508;2022-09-27T00:04:19;4.68;;;2.90;;
5762;SDS011;2906;53.282;9.508;2022-09-27T00:05:22;6.68;;;3.38;;
5762;SDS011;2906;53.282;9.508;2022-09-27T00:06:24;5.50;;;3.30;;
5762;SDS011;2906;53.282;9.508;2022-09-27T00:07:27;5.55;;;3.30;;
5762;SDS011;2906;53.282;9.508;2022-09-27T00:08:28;13.57;;;3.75;;
5762;SDS011;2906;53.282;9.508;2022-09-27T00:09:30;5.68;;;3.30;;
5762;SDS011;2906;53.282;9.508;2022-09-27T00:10:32;5.50;;;3.00;;
5762;SDS011;2906;53.282;9.508;2022-09-27T00:11:36;7.28;;;3.42;;
5762;SDS011;2906;53.282;9.508;2022-09-27T00:12:38;8.75;;;3.90;;
5762;SDS011;2906;53.282;9.508;2022-09-27T00:13:40;6.88;;;3.50;;
5762;SDS011;2906;53.282;9.508;2022-09-27T00:14:42;6.68;;;3.05;;
5762;SDS011;2906;53.282;9.508;2022-09-27T00:15:44;7.57;;;3.38;;
5762;SDS011;2906;53.282;9.508;2022-09-27T00:16:45;7.60;;;3.35;;
5762;SDS011;2906;53.282;9.508;2022-09-27T00:17:47;5.57;;;3.05;;
5762;SDS011;2906;53.282;9.508;2022-09-27T00:18:51;5.55;;;2.90;;
5762;SDS011;2906;53.282;9.508;2022-09-27T00:19:53;5.07;;;3.20;;
5762;SDS011;2906;53.282;9.508;2022-09-27T00:20:55;4.82;;;3.30;;
5762;SDS011;2906;53.282;9.508;2022-09-27T00:21:57;5.30;;;3.05;;
5762;SDS011;2906;53.282;9.508;2022-09-27T00:23:00;6.38;;;3.00;;
5762;SDS011;2906;53.282;9.508;2022-09-27T00:24:02;5.68;;;3.17;;
5762;SDS011;2906;53.282;9.508;2022-09-27T00:25:04;10.63;;;3.10;;
5762;SDS011;2906;53.282;9.508;2022-09-27T00:26:07;5.30;;;3.30;;
5762;SDS011;2906;53.282;9.508;2022-09-27T00:27:10;6.85;;;3.42;;
5762;SDS011;2906;53.282;9.508;2022-09-27T00:28:12;6.50;;;3.28;;
5762;SDS011;2906;53.282;9.508;2022-09-27T00:29:13;7.47;;;3.53;;
5762;SDS011;2906;53.282;9.508;2022-09-27T00:30:16;5.38;;;3.25;;
5762;SDS011;2906;53.282;9.508;2022-09-27T00:31:18;5.93;;;2.88;;
5762;SDS011;2906;53.282;9.508;2022-09-27T00:32:20;7.28;;;3.40;;
5762;SDS011;2906;53.282;9.508;2022-09-27T00:33:22;6.75;;;3.30;;
5762;SDS011;2906;53.282;9.508;2022-09-27T00:34:24;7.55;;;3.30;;
5762;SDS011;2906;53.282;9.508;2022-09-27T00:35:26;8.65;;;3.05;;
5762;SDS011;2906;53.282;9.508;2022-09-27T00:36:28;5.30;;;3.05;;
5762;SDS011;2906;53.282;9.508;2022-09-27T00:37:29;4.03;;;2.90;;
5762;SDS011;2906;53.282;9.508;2022-09-27T00:38:31;7.65;;;3.10;;
5762;SDS011;2906;53.282;9.508;2022-09-27T00:39:33;8.23;;;3.40;;
5762;SDS011;2906;53.282;9.508;2022-09-27T00:40:37;7.90;;;3.42;;
5762;SDS011;2906;53.282;9.508;2022-09-27T00:41:38;5.50;;;3.30;;
5762;SDS011;2906;53.282;9.508;2022-09-27T00:42:42;4.80;;;3.08;;
5762;SDS011;2906;53.282;9.508;2022-09-27T00:43:45;6.68;;;2.85;;
5762;SDS011;2906;53.282;9.508;2022-09-27T00:46:04;6.20;;;3.50;;
5762;SDS011;2906;53.282;9.508;2022-09-27T00:47:07;10.32;;;3.53;;
5762;SDS011;2906;53.282;9.508;2022-09-27T00:48:09;4.63;;;3.13;;
5762;SDS011;2906;53.282;9.508;2022-09-27T00:49:16;7.28;;;3.20;;
5762;SDS011;2906;53.282;9.508;2022-09-27T00:50:21;6.45;;;3.60;;
5762;SDS011;2906;53.282;9.508;2022-09-27T00:51:25;5.40;;;3.35;;
5762;SDS011;2906;53.282;9.508;2022-09-27T00:52:27;6.00;;;3.40;;
5762;SDS011;2906;53.282;9.508;2022-09-27T00:53:31;4.68;;;3.30;;
5762;SDS011;2906;53.282;9.508;2022-09-27T00:54:34;8.80;;;3.70;;
5762;SDS011;2906;53.282;9.508;2022-09-27T00:55:38;7.70;;;3.50;;
5762;SDS011;2906;53.282;9.508;2022-09-27T00:56:41;6.90;;;3.78;;
5762;SDS011;2906;53.282;9.508;2022-09-27T00:57:46;6.03;;;3.13;;
5762;SDS011;2906;53.282;9.508;2022-09-27T00:58:49;5.80;;;4.00;;
5762;SDS011;2906;53.282;9.508;2022-09-27T00:59:56;4.43;;;2.70;;
5762;SDS011;2906;53.282;9.508;2022-09-27T01:01:00;9.65;;;3.20;;
5762;SDS011;2906;53.282;9.508;2022-09-27T01:02:03;6.63;;;3.38;;
5762;SDS011;2906;53.282;9.508;2022-09-27T01:03:05;7.32;;;3.38;;
5762;SDS011;2906;53.282;9.508;2022-09-27T01:04:09;5.20;;;3.40;;
5762;SDS011;2906;53.282;9.508;2022-09-27T01:05:11;4.93;;;3.05;;
5762;SDS011;2906;53.282;9.508;2022-09-27T01:06:14;5.95;;;3.45;;
5762;SDS011;2906;53.282;9.508;2022-09-27T01:07:16;7.00;;;3.75;;
5762;SDS011;2906;53.282;9.508;2022-09-27T01:08:19;5.55;;;3.45;;
5762;SDS011;2906;53.282;9.508;2022-09-27T01:09:20;9.48;;;3.78;;
5762;SDS011;2906;53.282;9.508;2022-09-27T01:10:23;7.22;;;3.65;;
5762;SDS011;2906;53.282;9.508;2022-09-27T01:11:33;6.25;;;3.65;;
5762;SDS011;2906;53.282;9.508;2022-09-27T01:12:39;5.35;;;3.58;;
5762;SDS011;2906;53.282;9.508;2022-09-27T01:13:45;7.28;;;3.90;;
5762;SDS011;2906;53.282;9.508;2022-09-27T01:14:56;10.25;;;3.92;;
5762;SDS011;2906;53.282;9.508;2022-09-27T01:15:59;5.55;;;3.70;;
5762;SDS011;2906;53.282;9.508;2022-09-27T01:17:05;5.65;;;3.50;;
5762;SDS011;2906;53.282;9.508;2022-09-27T01:18:14;9.18;;;4.25;;
5762;SDS011;2906;53.282;9.508;2022-09-27T01:19:21;6.18;;;3.80;;
5762;SDS011;2906;53.282;9.508;2022-09-27T01:20:34;5.95;;;3.33;;
5762;SDS011;2906;53.282;9.508;2022-09-27T01:21:40;7.28;;;3.65;;
5762;SDS011;2906;53.282;9.508;2022-09-27T01:22:46;6.82;;;3.90;;
5762;SDS011;2906;53.282;9.508;2022-09-27T01:25:14;6.93;;;4.22;;
5762;SDS011;2906;53.282;9.508;2022-09-27T01:26:27;9.75;;;4.13;;
5762;SDS011;2906;53.282;9.508;2022-09-27T01:27:37;10.38;;;3.90;;
5762;SDS011;2906;53.282;9.508;2022-09-27T01:28:48;7.93;;;3.85;;
5762;SDS011;2906;53.282;9.508;2022-09-27T01:29:56;7.35;;;4.00;;
5762;SDS011;2906;53.282;9.508;2022-09-27T01:31:02;8.25;;;4.50;;
5762;SDS011;2906;53.282;9.508;2022-09-27T01:32:08;6.40;;;4.07;;
5762;SDS011;2906;53.282;9.508;2022-09-27T01:33:15;17.85;;;4.45;;
5762;SDS011;2906;53.282;9.508;2022-09-27T01:34:21;6.20;;;4.40;;
5762;SDS011;2906;53.282;9.508;2022-09-27T01:35:28;7.47;;;4.50;;
5762;SDS011;2906;53.282;9.508;2022-09-27T01:36:37;9.13;;;4.53;;
5762;SDS011;2906;53.282;9.508;2022-09-27T01:37:42;6.65;;;4.10;;
5762;SDS011;2906;53.282;9.508;2022-09-27T01:38:50;6.25;;;4.28;;
5762;SDS011;2906;53.282;9.508;2022-09-27T01:39:58;7.25;;;4.63;;
5762;SDS011;2906;53.282;9.508;2022-09-27T01:41:03;6.50;;;4.50;;
5762;SDS011;2906;53.282;9.508;2022-09-27T01:42:07;9.85;;;4.00;;
5762;SDS011;2906;53.282;9.508;2022-09-27T01:43:13;8.20;;;4.85;;
5762;SDS011;2906;53.282;9.508;2022-09-27T01:44:18;7.88;;;4.75;;
5762;SDS011;2906;53.282;9.508;2022-09-27T01:45:24;6.88;;;4.63;;
5762;SDS011;2906;53.282;9.508;2022-09-27T01:46:28;10.52;;;5.38;;
5762;SDS011;2906;53.282;9.508;2022-09-27T01:47:34;5.85;;;4.20;;
5762;SDS011;2906;53.282;9.508;2022-09-27T01:48:39;10.88;;;5.30;;
5762;SDS011;2906;53.282;9.508;2022-09-27T01:49:45;7.30;;;5.10;;
5762;SDS011;2906;53.282;9.508;2022-09-27T01:50:49;6.75;;;4.80;;
5762;SDS011;2906;53.282;9.508;2022-09-27T01:51:52;8.00;;;4.80;;
5762;SDS011;2906;53.282;9.508;2022-09-27T01:52:58;9.07;;;4.82;;
5762;SDS011;2906;53.282;9.508;2022-09-27T01:54:02;6.70;;;4.93;;
5762;SDS011;2906;53.282;9.508;2022-09-27T01:55:04;6.97;;;4.90;;
5762;SDS011;2906;53.282;9.508;2022-09-27T01:56:08;8.30;;;4.75;;
5762;SDS011;2906;53.282;9.508;2022-09-27T01:57:11;6.40;;;4.63;;
5762;SDS011;2906;53.282;9.508;2022-09-27T01:58:15;10.32;;;5.65;;
5762;SDS011;2906;53.282;9.508;2022-09-27T01:59:19;11.57;;;5.50;;
5762;SDS011;2906;53.282;9.508;2022-09-27T02:00:22;10.73;;;5.32;;
5762;SDS011;2906;53.282;9.508;2022-09-27T02:01:23;17.67;;;5.57;;
5762;SDS011;2906;53.282;9.508;2022-09-27T02:02:28;7.18;;;5.00;;
5762;SDS011;2906;53.282;9.508;2022-09-27T02:03:33;8.02;;;5.13;;
5762;SDS011;2906;53.282;9.508;2022-09-27T02:04:36;9.38;;;5.25;;
5762;SDS011;2906;53.282;9.508;2022-09-27T02:05:39;7.25;;;4.82;;
5762;SDS011;2906;53.282;9.508;2022-09-27T02:06:44;8.05;;;4.90;;
5762;SDS011;2906;53.282;9.508;2022-09-27T02:07:48;7.82;;;5.30;;
5762;SDS011;2906;53.282;9.508;2022-09-27T02:08:54;8.50;;;5.00;;
5762;SDS011;2906;53.282;9.508;2022-09-27T02:09:57;8.25;;;5.80;;
5762;SDS011;2906;53.282;9.508;2022-09-27T02:11:00;7.65;;;4.93;;
5762;SDS011;2906;53.282;9.508;2022-09-27T02:12:03;8.50;;;4.97;;
5762;SDS011;2906;53.282;9.508;2022-09-27T02:13:16;7.90;;;5.25;;
5762;SDS011;2906;53.282;9.508;2022-09-27T02:14:19;7.90;;;5.00;;
5762;SDS011;2906;53.282;9.508;2022-09-27T02:15:23;7.63;;;4.70;;
5762;SDS011;2906;53.282;9.508;2022-09-27T02:16:28;8.77;;;5.43;;
5762;SDS011;2906;53.282;9.508;2022-09-27T02:17:36;8.10;;;5.43;;
5762;SDS011;2906;53.282;9.508;2022-09-27T02:18:42;8.00;;;4.95;;
5762;SDS011;2906;53.282;9.508;2022-09-27T02:19:50;7.65;;;4.85;;
5762;SDS011;2906;53.282;9.508;2022-09-27T02:20:54;6.57;;;4.60;;
5762;SDS011;2906;53.282;9.508;2022-09-27T02:21:58;10.35;;;5.50;;
5762;SDS011;2906;53.282;9.508;2022-09-27T02:23:04;10.05;;;5.45;;
5762;SDS011;2906;53.282;9.508;2022-09-27T02:24:11;8.73;;;5.75;;
5762;SDS011;2906;53.282;9.508;2022-09-27T02:25:17;11.52;;;5.45;;
5762;SDS011;2906;53.282;9.508;2022-09-27T02:26:21;6.72;;;5.00;;
5762;SDS011;2906;53.282;9.508;2022-09-27T02:27:25;8.45;;;5.60;;
5762;SDS011;2906;53.282;9.508;2022-09-27T02:28:30;9.05;;;5.75;;
5762;SDS011;2906;53.282;9.508;2022-09-27T02:29:33;11.98;;;5.40;;
5762;SDS011;2906;53.282;9.508;2022-09-27T02:30:37;10.07;;;6.60;;
5762;SDS011;2906;53.282;9.508;2022-09-27T02:31:38;9.32;;;5.90;;
5762;SDS011;2906;53.282;9.508;2022-09-27T02:32:42;9.98;;;6.20;;
5762;SDS011;2906;53.282;9.508;2022-09-27T02:33:44;9.02;;;6.15;;
5762;SDS011;2906;53.282;9.508;2022-09-27T02:34:47;8.43;;;6.18;;
5762;SDS011;2906;53.282;9.508;2022-09-27T02:35:50;8.90;;;5.85;;
5762;SDS011;2906;53.282;9.508;2022-09-27T02:36:52;10.00;;;6.45;;
5762;SDS011;2906;53.282;9.508;2022-09-27T02:37:54;8.60;;;6.05;;
5762;SDS011;2906;53.282;9.508;2022-09-27T02:38:56;9.05;;;6.35;;
5762;SDS011;2906;53.282;9.508;2022-09-27T02:39:59;9.05;;;6.63;;
5762;SDS011;2906;53.282;9.508;2022-09-27T02:41:10;12.15;;;6.70;;
5762;SDS011;2906;53.282;9.508;2022-09-27T02:42:12;9.05;;;6.45;;
5762;SDS011;2906;53.282;9.508;2022-09-27T02:43:15;10.63;;;6.57;;
5762;SDS011;2906;53.282;9.508;2022-09-27T02:44:17;10.80;;;6.80;;
5762;SDS011;2906;53.282;9.508;2022-09-27T02:45:20;8.15;;;6.03;;
5762;SDS011;2906;53.282;9.508;2022-09-27T02:46:25;12.32;;;7.80;;
5762;SDS011;2906;53.282;9.508;2022-09-27T02:47:37;9.35;;;6.47;;
5762;SDS011;2906;53.282;9.508;2022-09-27T02:48:46;12.60;;;7.07;;
5762;SDS011;2906;53.282;9.508;2022-09-27T02:49:55;11.15;;;7.22;;
5762;SDS011;2906;53.282;9.508;2022-09-27T02:51:04;10.02;;;6.95;;
5762;SDS011;2906;53.282;9.508;2022-09-27T02:52:11;11.55;;;6.90;;
5762;SDS011;2906;53.282;9.508;2022-09-27T02:53:19;11.10;;;8.00;;
5762;SDS011;2906;53.282;9.508;2022-09-27T02:54:24;11.30;;;7.63;;
5762;SDS011;2906;53.282;9.508;2022-09-27T02:55:28;10.30;;;7.20;;
5762;SDS011;2906;53.282;9.508;2022-09-27T02:56:33;13.80;;;7.10;;
5762;SDS011;2906;53.282;9.508;2022-09-27T02:57:40;16.38;;;7.28;;
5762;SDS011;2906;53.282;9.508;2022-09-27T02:58:51;9.50;;;6.93;;
5762;SDS011;2906;53.282;9.508;2022-09-27T02:59:59;10.30;;;7.25;;
5762;SDS011;2906;53.282;9.508;2022-09-27T03:01:06;15.63;;;8.27;;
5762;SDS011;2906;53.282;9.508;2022-09-27T03:02:10;11.55;;;7.97;;
5762;SDS011;2906;53.282;9.508;2022-09-27T03:03:15;14.18;;;7.88;;
5762;SDS011;2906;53.282;9.508;2022-09-27T03:04:21;13.02;;;7.80;;
5762;SDS011;2906;53.282;9.508;2022-09-27T03:05:26;13.05;;;7.03;;
5762;SDS011;2906;53.282;9.508;2022-09-27T03:06:29;12.93;;;8.30;;
5762;SDS011;2906;53.282;9.508;2022-09-27T03:07:32;19.35;;;7.20;;
5762;SDS011;2906;53.282;9.508;2022-09-27T03:08:34;11.60;;;8.15;;
5762;SDS011;2906;53.282;9.508;2022-09-27T03:09:40;12.30;;;8.50;;
5762;SDS011;2906;53.282;9.508;2022-09-27T03:10:41;12.82;;;8.27;;
5762;SDS011;2906;53.282;9.508;2022-09-27T03:11:44;13.25;;;8.23;;
5762;SDS011;2906;53.282;9.508;2022-09-27T03:12:45;11.32;;;7.60;;
5762;SDS011;2906;53.282;9.508;2022-09-27T03:13:47;11.98;;;7.70;;
5762;SDS011;2906;53.282;9.508;2022-09-27T03:14:49;13.95;;;8.57;;
5762;SDS011;2906;53.282;9.508;2022-09-27T03:15:51;15.18;;;8.60;;
5762;SDS011;2906;53.282;9.508;2022-09-27T03:16:52;11.00;;;7.72;;
5762;SDS011;2906;53.282;9.508;2022-09-27T03:17:54;13.27;;;8.15;;
5762;SDS011;2906;53.282;9.508;2022-09-27T03:18:55;13.07;;;8.60;;
5762;SDS011;2906;53.282;9.508;2022-09-27T03:19:59;12.65;;;8.20;;
5762;SDS011;2906;53.282;9.508;2022-09-27T03:21:00;14.57;;;8.73;;
5762;SDS011;2906;53.282;9.508;2022-09-27T03:22:02;13.95;;;8.80;;
5762;SDS011;2906;53.282;9.508;2022-09-27T03:23:04;14.10;;;9.10;;
5762;SDS011;2906;53.282;9.508;2022-09-27T03:24:06;14.00;;;8.90;;
5762;SDS011;2906;53.282;9.508;2022-09-27T03:25:07;14.20;;;9.13;;
5762;SDS011;2906;53.282;9.508;2022-09-27T03:26:10;16.10;;;9.48;;
5762;SDS011;2906;53.282;9.508;2022-09-27T03:27:11;15.13;;;9.38;;
5762;SDS011;2906;53.282;9.508;2022-09-27T03:28:14;17.00;;;9.25;;
5762;SDS011;2906;53.282;9.508;2022-09-27T03:29:15;16.00;;;9.10;;
5762;SDS011;2906;53.282;9.508;2022-09-27T03:30:17;14.32;;;10.00;;
5762;SDS011;2906;53.282;9.508;2022-09-27T03:31:19;13.50;;;8.27;;
5762;SDS011;2906;53.282;9.508;2022-09-27T03:32:21;16.42;;;9.23;;
5762;SDS011;2906;53.282;9.508;2022-09-27T03:33:22;19.50;;;9.13;;
5762;SDS011;2906;53.282;9.508;2022-09-27T03:34:25;14.55;;;9.48;;
5762;SDS011;2906;53.282;9.508;2022-09-27T03:35:27;15.52;;;9.00;;
5762;SDS011;2906;53.282;9.508;2022-09-27T03:36:29;15.73;;;9.63;;
5762;SDS011;2906;53.282;9.508;2022-09-27T03:37:31;18.35;;;10.77;;
5762;SDS011;2906;53.282;9.508;2022-09-27T03:38:33;15.52;;;9.57;;
5762;SDS011;2906;53.282;9.508;2022-09-27T03:39:35;17.30;;;10.60;;
5762;SDS011;2906;53.282;9.508;2022-09-27T03:40:36;18.27;;;10.27;;
5762;SDS011;2906;53.282;9.508;2022-09-27T03:41:38;20.45;;;10.20;;
5762;SDS011;2906;53.282;9.508;2022-09-27T03:42:40;19.20;;;10.10;;
5762;SDS011;2906;53.282;9.508;2022-09-27T03:43:43;21.05;;;11.38;;
5762;SDS011;2906;53.282;9.508;2022-09-27T03:44:44;18.55;;;11.50;;
5762;SDS011;2906;53.282;9.508;2022-09-27T03:45:46;25.27;;;11.68;;
5762;SDS011;2906;53.282;9.508;2022-09-27T03:46:48;19.73;;;11.68;;
5762;SDS011;2906;53.282;9.508;2022-09-27T03:47:50;20.77;;;12.15;;
5762;SDS011;2906;53.282;9.508;2022-09-27T03:48:51;25.70;;;12.40;;
5762;SDS011;2906;53.282;9.508;2022-09-27T03:49:53;22.70;;;12.48;;
5762;SDS011;2906;53.282;9.508;2022-09-27T03:50:56;27.33;;;12.63;;
5762;SDS011;2906;53.282;9.508;2022-09-27T03:52:00;26.33;;;12.85;;
5762;SDS011;2906;53.282;9.508;2022-09-27T03:53:01;23.75;;;12.95;;
5762;SDS011;2906;53.282;9.508;2022-09-27T03:54:03;23.40;;;13.60;;
5762;SDS011;2906;53.282;9.508;2022-09-27T03:55:05;24.23;;;13.10;;
5762;SDS011;2906;53.282;9.508;2022-09-27T03:56:07;22.35;;;13.48;;
5762;SDS011;2906;53.282;9.508;2022-09-27T03:57:09;22.98;;;13.02;;
5762;SDS011;2906;53.282;9.508;2022-09-27T03:58:11;24.40;;;14.40;;
5762;SDS011;2906;53.282;9.508;2022-09-27T03:59:12;25.25;;;13.50;;
5762;SDS011;2906;53.282;9.508;2022-09-27T04:00:14;28.98;;;14.98;;
5762;SDS011;2906;53.282;9.508;2022-09-27T04:01:17;26.25;;;14.05;;
5762;SDS011;2906;53.282;9.508;2022-09-27T04:02:19;24.90;;;13.90;;
5762;SDS011;2906;53.282;9.508;2022-09-27T04:03:20;29.25;;;14.20;;
5762;SDS011;2906;53.282;9.508;2022-09-27T04:04:22;30.75;;;14.38;;
5762;SDS011;2906;53.282;9.508;2022-09-27T04:05:24;34.35;;;15.20;;
5762;SDS011;2906;53.282;9.508;2022-09-27T04:06:27;28.88;;;14.40;;
5762;SDS011;2906;53.282;9.508;2022-09-27T04:07:29;25.67;;;15.05;;
5762;SDS011;2906;53.282;9.508;2022-09-27T04:08:31;33.65;;;15.98;;
5762;SDS011;2906;53.282;9.508;2022-09-27T04:09:32;31.08;;;14.95;;
5762;SDS011;2906;53.282;9.508;2022-09-27T04:10:34;27.95;;;15.32;;
5762;SDS011;2906;53.282;9.508;2022-09-27T04:11:36;25.58;;;13.98;;
5762;SDS011;2906;53.282;9.508;2022-09-27T04:12:38;26.15;;;15.40;;
5762;SDS011;2906;53.282;9.508;2022-09-27T04:13:39;33.30;;;15.43;;
5762;SDS011;2906;53.282;9.508;2022-09-27T04:14:43;29.20;;;15.02;;
5762;SDS011;2906;53.282;9.508;2022-09-27T04:15:44;35.90;;;15.52;;
5762;SDS011;2906;53.282;9.508;2022-09-27T04:16:47;29.90;;;15.52;;
5762;SDS011;2906;53.282;9.508;2022-09-27T04:17:48;29.40;;;15.40;;
5762;SDS011;2906;53.282;9.508;2022-09-27T04:18:50;29.52;;;15.73;;
5762;SDS011;2906;53.282;9.508;2022-09-27T04:19:52;30.42;;;16.15;;
5762;SDS011;2906;53.282;9.508;2022-09-27T04:20:54;30.77;;;16.13;;
5762;SDS011;2906;53.282;9.508;2022-09-27T04:21:57;28.13;;;15.25;;
5762;SDS011;2906;53.282;9.508;2022-09-27T04:22:59;34.85;;;16.35;;
5762;SDS011;2906;53.282;9.508;2022-09-27T04:24:00;32.67;;;16.35;;
5762;SDS011;2906;53.282;9.508;2022-09-27T04:25:04;29.75;;;15.90;;
5762;SDS011;2906;53.282;9.508;2022-09-27T04:26:06;29.77;;;16.13;;
5762;SDS011;2906;53.282;9.508;2022-09-27T04:27:08;29.42;;;15.35;;
5762;SDS011;2906;53.282;9.508;2022-09-27T04:28:09;34.25;;;16.25;;
5762;SDS011;2906;53.282;9.508;2022-09-27T04:29:12;28.13;;;15.35;;
5762;SDS011;2906;53.282;9.508;2022-09-27T04:30:14;31.10;;;15.25;;
5762;SDS011;2906;53.282;9.508;2022-09-27T04:31:16;41.15;;;15.50;;
5762;SDS011;2906;53.282;9.508;2022-09-27T04:32:18;34.80;;;15.48;;
5762;SDS011;2906;53.282;9.508;2022-09-27T04:33:20;31.35;;;14.55;;
5762;SDS011;2906;53.282;9.508;2022-09-27T04:34:22;28.08;;;14.45;;
5762;SDS011;2906;53.282;9.508;2022-09-27T04:35:38;26.65;;;13.68;;
5762;SDS011;2906;53.282;9.508;2022-09-27T04:36:55;30.58;;;13.70;;
5762;SDS011;2906;53.282;9.508;2022-09-27T04:37:59;32.72;;;13.20;;
5762;SDS011;2906;53.282;9.508;2022-09-27T04:39:01;35.33;;;14.07;;
5762;SDS011;2906;53.282;9.508;2022-09-27T04:40:03;31.77;;;13.35;;
5762;SDS011;2906;53.282;9.508;2022-09-27T04:41:05;27.38;;;13.25;;
5762;SDS011;2906;53.282;9.508;2022-09-27T04:42:07;30.77;;;13.60;;
5762;SDS011;2906;53.282;9.508;2022-09-27T04:43:08;27.98;;;13.43;;
5762;SDS011;2906;53.282;9.508;2022-09-27T04:44:11;30.48;;;14.27;;
5762;SDS011;2906;53.282;9.508;2022-09-27T04:45:12;31.15;;;13.55;;
5762;SDS011;2906;53.282;9.508;2022-09-27T04:46:14;21.45;;;12.50;;
5762;SDS011;2906;53.282;9.508;2022-09-27T04:47:16;36.85;;;13.20;;
5762;SDS011;2906;53.282;9.508;2022-09-27T04:48:20;29.15;;;13.55;;
5762;SDS011;2906;53.282;9.508;2022-09-27T04:49:21;27.38;;;12.25;;
5762;SDS011;2906;53.282;9.508;2022-09-27T04:50:23;25.17;;;12.02;;
5762;SDS011;2906;53.282;9.508;2022-09-27T04:51:25;30.02;;;12.40;;
5762;SDS011;2906;53.282;9.508;2022-09-27T04:52:27;21.42;;;11.95;;
5762;SDS011;2906;53.282;9.508;2022-09-27T04:53:30;24.65;;;12.00;;
5762;SDS011;2906;53.282;9.508;2022-09-27T04:54:33;25.30;;;11.95;;
5762;SDS011;2906;53.282;9.508;2022-09-27T04:55:34;25.70;;;11.93;;
5762;SDS011;2906;53.282;9.508;2022-09-27T04:56:37;25.48;;;10.93;;
5762;SDS011;2906;53.282;9.508;2022-09-27T04:57:39;24.75;;;11.30;;
5762;SDS011;2906;53.282;9.508;2022-09-27T04:58:41;25.10;;;10.05;;
5762;SDS011;2906;53.282;9.508;2022-09-27T04:59:42;22.17;;;10.07;;
5762;SDS011;2906;53.282;9.508;2022-09-27T05:00:45;32.63;;;11.10;;
5762;SDS011;2906;53.282;9.508;2022-09-27T05:01:46;20.10;;;10.80;;
5762;SDS011;2906;53.282;9.508;2022-09-27T05:02:49;18.95;;;8.63;;
5762;SDS011;2906;53.282;9.508;2022-09-27T05:03:52;17.75;;;9.27;;
5762;SDS011;2906;53.282;9.508;2022-09-27T05:04:54;19.35;;;9.40;;
5762;SDS011;2906;53.282;9.508;2022-09-27T05:05:59;21.73;;;9.23;;
5762;SDS011;2906;53.282;9.508;2022-09-27T05:07:02;19.23;;;8.35;;
5762;SDS011;2906;53.282;9.508;2022-09-27T05:08:05;17.20;;;9.00;;
5762;SDS011;2906;53.282;9.508;2022-09-27T05:09:09;15.35;;;8.60;;
5762;SDS011;2906;53.282;9.508;2022-09-27T05:10:10;28.85;;;8.82;;
5762;SDS011;2906;53.282;9.508;2022-09-27T05:11:13;17.70;;;8.27;;
5762;SDS011;2906;53.282;9.508;2022-09-27T05:12:14;18.63;;;7.35;;
5762;SDS011;2906;53.282;9.508;2022-09-27T05:13:16;16.33;;;7.35;;
5762;SDS011;2906;53.282;9.508;2022-09-27T05:14:17;17.27;;;6.65;;
5762;SDS011;2906;53.282;9.508;2022-09-27T05:15:20;17.83;;;7.00;;
5762;SDS011;2906;53.282;9.508;2022-09-27T05:16:22;11.77;;;7.22;;
5762;SDS011;2906;53.282;9.508;2022-09-27T05:17:24;14.40;;;7.20;;
5762;SDS011;2906;53.282;9.508;2022-09-27T05:18:25;15.55;;;7.13;;
5762;SDS011;2906;53.282;9.508;2022-09-27T05:19:28;13.95;;;6.18;;
5762;SDS011;2906;53.282;9.508;2022-09-27T05:20:29;20.75;;;6.38;;
5762;SDS011;2906;53.282;9.508;2022-09-27T05:21:31;16.13;;;6.40;;
5762;SDS011;2906;53.282;9.508;2022-09-27T05:22:32;15.13;;;7.15;;
5762;SDS011;2906;53.282;9.508;2022-09-27T05:23:34;13.10;;;6.60;;
5762;SDS011;2906;53.282;9.508;2022-09-27T05:24:38;15.13;;;6.22;;
5762;SDS011;2906;53.282;9.508;2022-09-27T05:25:40;11.00;;;5.95;;
5762;SDS011;2906;53.282;9.508;2022-09-27T05:26:42;13.18;;;6.47;;
5762;SDS011;2906;53.282;9.508;2022-09-27T05:27:46;9.75;;;5.75;;
5762;SDS011;2906;53.282;9.508;2022-09-27T05:28:48;13.82;;;6.65;;
5762;SDS011;2906;53.282;9.508;2022-09-27T05:29:49;12.52;;;6.13;;
5762;SDS011;2906;53.282;9.508;2022-09-27T05:30:52;22.60;;;6.47;;
5762;SDS011;2906;53.282;9.508;2022-09-27T05:31:54;11.35;;;6.45;;
5762;SDS011;2906;53.282;9.508;2022-09-27T05:32:55;14.13;;;6.32;;
5762;SDS011;2906;53.282;9.508;2022-09-27T05:33:58;26.95;;;6.60;;
5762;SDS011;2906;53.282;9.508;2022-09-27T05:34:59;11.38;;;5.90;;
5762;SDS011;2906;53.282;9.508;2022-09-27T05:36:01;13.48;;;5.68;;
5762;SDS011;2906;53.282;9.508;2022-09-27T05:37:03;13.50;;;6.05;;
5762;SDS011;2906;53.282;9.508;2022-09-27T05:38:05;12.52;;;5.20;;
5762;SDS011;2906;53.282;9.508;2022-09-27T05:39:07;8.98;;;5.13;;
5762;SDS011;2906;53.282;9.508;2022-09-27T05:40:10;8.73;;;5.20;;
5762;SDS011;2906;53.282;9.508;2022-09-27T05:41:11;12.57;;;5.68;;
5762;SDS011;2906;53.282;9.508;2022-09-27T05:42:14;12.52;;;5.95;;
5762;SDS011;2906;53.282;9.508;2022-09-27T05:43:16;12.27;;;4.97;;
5762;SDS011;2906;53.282;9.508;2022-09-27T05:44:19;9.48;;;5.20;;
5762;SDS011;2906;53.282;9.508;2022-09-27T05:45:20;10.95;;;5.10;;
5762;SDS011;2906;53.282;9.508;2022-09-27T05:46:23;9.55;;;5.10;;
5762;SDS011;2906;53.282;9.508;2022-09-27T05:47:24;11.10;;;5.10;;
5762;SDS011;2906;53.282;9.508;2022-09-27T05:48:26;8.73;;;5.05;;
5762;SDS011;2906;53.282;9.508;2022-09-27T05:49:29;13.77;;;5.22;;
5762;SDS011;2906;53.282;9.508;2022-09-27T05:50:31;10.55;;;5.15;;
5762;SDS011;2906;53.282;9.508;2022-09-27T05:51:32;8.77;;;4.30;;
5762;SDS011;2906;53.282;9.508;2022-09-27T05:52:35;7.85;;;4.40;;
5762;SDS011;2906;53.282;9.508;2022-09-27T05:53:37;11.40;;;5.22;;
5762;SDS011;2906;53.282;9.508;2022-09-27T05:54:39;8.48;;;4.03;;
5762;SDS011;2906;53.282;9.508;2022-09-27T05:55:42;11.48;;;5.22;;
5762;SDS011;2906;53.282;9.508;2022-09-27T05:56:44;15.88;;;4.57;;
5762;SDS011;2906;53.282;9.508;2022-09-27T05:57:53;6.95;;;4.03;;
5762;SDS011;2906;53.282;9.508;2022-09-27T05:58:56;14.07;;;4.53;;
5762;SDS011;2906;53.282;9.508;2022-09-27T05:59:59;9.05;;;4.72;;
5762;SDS011;2906;53.282;9.508;2022-09-27T06:01:00;7.50;;;4.65;;
5762;SDS011;2906;53.282;9.508;2022-09-27T06:02:02;6.85;;;4.30;;
5762;SDS011;2906;53.282;9.508;2022-09-27T06:03:04;7.85;;;3.95;;
5762;SDS011;2906;53.282;9.508;2022-09-27T06:04:07;7.95;;;3.92;;
5762;SDS011;2906;53.282;9.508;2022-09-27T06:05:08;8.75;;;3.63;;
5762;SDS011;2906;53.282;9.508;2022-09-27T06:06:11;7.72;;;3.30;;
5762;SDS011;2906;53.282;9.508;2022-09-27T06:07:14;7.68;;;3.60;;
5762;SDS011;2906;53.282;9.508;2022-09-27T06:08:16;8.45;;;3.30;;
5762;SDS011;2906;53.282;9.508;2022-09-27T06:09:21;9.32;;;3.83;;
5762;SDS011;2906;53.282;9.508;2022-09-27T06:10:23;11.02;;;3.40;;
5762;SDS011;2906;53.282;9.508;2022-09-27T06:11:26;8.02;;;3.15;;
5762;SDS011;2906;53.282;9.508;2022-09-27T06:12:30;5.97;;;3.25;;
5762;SDS011;2906;53.282;9.508;2022-09-27T06:13:31;5.93;;;3.08;;
5762;SDS011;2906;53.282;9.508;2022-09-27T06:14:35;11.52;;;3.28;;
5762;SDS011;2906;53.282;9.508;2022-09-27T06:15:37;9.57;;;3.30;;
5762;SDS011;2906;53.282;9.508;2022-09-27T06:16:40;9.95;;;2.90;;
5762;SDS011;2906;53.282;9.508;2022-09-27T06:17:41;7.50;;;2.75;;
5762;SDS011;2906;53.282;9.508;2022-09-27T06:18:44;9.68;;;2.95;;
5762;SDS011;2906;53.282;9.508;2022-09-27T06:19:45;7.55;;;3.08;;
5762;SDS011;2906;53.282;9.508;2022-09-27T06:20:48;7.93;;;2.70;;
5762;SDS011;2906;53.282;9.508;2022-09-27T06:21:49;6.72;;;2.97;;
5762;SDS011;2906;53.282;9.508;2022-09-27T06:22:52;6.90;;;2.42;;
5762;SDS011;2906;53.282;9.508;2022-09-27T06:23:53;7.15;;;2.63;;
5762;SDS011;2906;53.282;9.508;2022-09-27T06:24:57;5.05;;;2.47;;
5762;SDS011;2906;53.282;9.508;2022-09-27T06:26:00;6.13;;;2.20;;
5762;SDS011;2906;53.282;9.508;2022-09-27T06:27:04;8.48;;;2.53;;
5762;SDS011;2906;53.282;9.508;2022-09-27T06:28:09;9.43;;;2.13;;
5762;SDS011;2906;53.282;9.508;2022-09-27T06:29:11;7.53;;;2.50;;
5762;SDS011;2906;53.282;9.508;2022-09-27T06:30:12;3.80;;;1.67;;
5762;SDS011;2906;53.282;9.508;2022-09-27T06:31:15;10.73;;;2.78;;